Pagrindinis puslapis
METAR-TAF:

METAR-TAF

Oro uostai :

Groningenas, Nyderlandai

platuma: 53-08N, ilguma: 006-35E, Aukštis: 4 m

Dabartinis oras

Ataskaita buvo paskelbta 20 minutes, ne 09:25 UTC
Vėjas 3 kt iš Vakarų/Pietvakarių, svyruoja nuo Pietų ir Šiaurės Vakarų
Temperatūra 14°C
Drėgmė 72%
Slėgis 1030 hPa
Matomumas 10 km arba daugiau
Su prošvaistėmis ne aukštis 2200 ft
Apsiniaukę ne aukštis 2800 ft

METAR: EHGG 200925Z AUTO 25003KT 180V310 9999 BKN022 OVC028 14/09 Q1030 NOSIG

Laikas: 11:45 (09:45 UTC)

Prognozė

Ataskaita buvo paskelbta 4 valandos ir 57 minutes, ne 04:48 UTC
Prognozė galioja nuo 20 metu 06 UTC su 21 metu 12 UTC
Vėjas 4 kt iš Pietvakarių
Matomumas 10 km arba daugiau
nėra debesų žemiau 1500 m ir nėra kamuolinių lietaus debesų
Tapsmas
nuo 20 metu 21 UTC su 20 metu 24 UTC
Matomumas: 4000 m
Sekli rūkas
Tikimybė 40%
nuo 21 metu 00 UTC su 21 metu 06 UTC
Matomumas: 0500 m
rūkas

TAF: EHGG 200448Z 2006/2112 22004KT CAVOK BECMG 2021/2024 4000 MIFG PROB40 2100/2106 0500 FG

Orai ataskaitas ir orų prognozės (METAR, TAF).

turimą stotys yra geltonos ir raudonos taškus žemėlapyje.

Perkelti pele per norėdami pamatyti stoties vardą.

Tada spustelėkite, norėdami matyti oro stebėjimo ir prognozės.

Norėdami pakeisti žemėlapį: spustelėkite ant žalios mygtukų su juodo kryžiaus žemyn,; žalią mygtuką su brūkšneliu, jei norite nutolinti; arba žalių rodyklių gretimoms žemėlapius.


METAR-TAF: